sensor_id;sensor_type;location;lat;lon;timestamp;P1;durP1;ratioP1;P2;durP2;ratioP2
76433;SDS011;65265;53.200;6.080;2023-09-19T00:00:42;4.32;;;0.60;;
76433;SDS011;65265;53.200;6.080;2023-09-19T00:05:37;4.68;;;0.70;;
76433;SDS011;65265;53.200;6.080;2023-09-19T00:10:30;2.28;;;0.22;;
76433;SDS011;65265;53.200;6.080;2023-09-19T00:15:26;5.00;;;0.52;;
76433;SDS011;65265;53.200;6.080;2023-09-19T00:20:19;5.55;;;0.68;;
76433;SDS011;65265;53.200;6.080;2023-09-19T00:25:12;3.22;;;0.60;;
76433;SDS011;65265;53.200;6.080;2023-09-19T00:30:06;3.00;;;0.40;;
76433;SDS011;65265;53.200;6.080;2023-09-19T00:39:59;10.68;;;0.85;;
76433;SDS011;65265;53.200;6.080;2023-09-19T00:44:50;4.22;;;0.70;;
76433;SDS011;65265;53.200;6.080;2023-09-19T00:49:42;4.47;;;0.73;;
76433;SDS011;65265;53.200;6.080;2023-09-19T00:54:35;2.35;;;0.30;;
76433;SDS011;65265;53.200;6.080;2023-09-19T00:59:27;3.80;;;0.93;;
76433;SDS011;65265;53.200;6.080;2023-09-19T01:04:20;3.63;;;1.15;;
76433;SDS011;65265;53.200;6.080;2023-09-19T01:09:11;4.32;;;0.93;;
76433;SDS011;65265;53.200;6.080;2023-09-19T01:14:06;5.30;;;0.82;;
76433;SDS011;65265;53.200;6.080;2023-09-19T01:19:16;5.18;;;0.65;;
76433;SDS011;65265;53.200;6.080;2023-09-19T01:24:32;5.20;;;0.77;;
76433;SDS011;65265;53.200;6.080;2023-09-19T01:29:38;2.58;;;0.50;;
76433;SDS011;65265;53.200;6.080;2023-09-19T01:34:49;5.43;;;0.35;;
76433;SDS011;65265;53.200;6.080;2023-09-19T01:39:42;3.22;;;0.60;;
76433;SDS011;65265;53.200;6.080;2023-09-19T01:44:36;1.58;;;0.30;;
76433;SDS011;65265;53.200;6.080;2023-09-19T01:49:37;7.35;;;0.35;;
76433;SDS011;65265;53.200;6.080;2023-09-19T01:54:40;3.00;;;0.45;;
76433;SDS011;65265;53.200;6.080;2023-09-19T01:59:37;3.13;;;0.20;;
76433;SDS011;65265;53.200;6.080;2023-09-19T02:04:36;2.30;;;0.32;;
76433;SDS011;65265;53.200;6.080;2023-09-19T02:09:28;3.13;;;0.75;;
76433;SDS011;65265;53.200;6.080;2023-09-19T02:14:21;6.05;;;0.88;;
76433;SDS011;65265;53.200;6.080;2023-09-19T02:19:12;5.10;;;0.30;;
76433;SDS011;65265;53.200;6.080;2023-09-19T02:24:04;3.58;;;1.20;;
76433;SDS011;65265;53.200;6.080;2023-09-19T02:28:57;2.88;;;0.73;;
76433;SDS011;65265;53.200;6.080;2023-09-19T02:33:50;5.75;;;0.93;;
76433;SDS011;65265;53.200;6.080;2023-09-19T02:38:42;8.20;;;0.82;;
76433;SDS011;65265;53.200;6.080;2023-09-19T02:43:34;4.13;;;1.17;;
76433;SDS011;65265;53.200;6.080;2023-09-19T02:53:21;7.88;;;0.57;;
76433;SDS011;65265;53.200;6.080;2023-09-19T02:58:12;5.18;;;0.80;;
76433;SDS011;65265;53.200;6.080;2023-09-19T03:03:04;3.55;;;0.50;;
76433;SDS011;65265;53.200;6.080;2023-09-19T03:07:56;4.13;;;0.25;;
76433;SDS011;65265;53.200;6.080;2023-09-19T03:12:52;10.40;;;1.23;;
76433;SDS011;65265;53.200;6.080;2023-09-19T03:17:43;4.85;;;0.65;;
76433;SDS011;65265;53.200;6.080;2023-09-19T03:22:35;4.53;;;1.42;;
76433;SDS011;65265;53.200;6.080;2023-09-19T03:27:26;6.28;;;1.80;;
76433;SDS011;65265;53.200;6.080;2023-09-19T03:32:20;7.80;;;0.55;;
76433;SDS011;65265;53.200;6.080;2023-09-19T03:37:11;5.85;;;0.45;;
76433;SDS011;65265;53.200;6.080;2023-09-19T03:42:03;6.32;;;1.33;;
76433;SDS011;65265;53.200;6.080;2023-09-19T03:46:57;4.20;;;0.45;;
76433;SDS011;65265;53.200;6.080;2023-09-19T03:51:49;2.85;;;0.68;;
76433;SDS011;65265;53.200;6.080;2023-09-19T03:56:41;4.38;;;1.10;;
76433;SDS011;65265;53.200;6.080;2023-09-19T04:01:33;5.18;;;0.55;;
76433;SDS011;65265;53.200;6.080;2023-09-19T04:06:24;8.35;;;0.73;;
76433;SDS011;65265;53.200;6.080;2023-09-19T04:11:19;8.82;;;1.20;;
76433;SDS011;65265;53.200;6.080;2023-09-19T04:16:11;2.45;;;1.08;;
76433;SDS011;65265;53.200;6.080;2023-09-19T04:21:03;4.28;;;0.47;;
76433;SDS011;65265;53.200;6.080;2023-09-19T04:25:55;8.85;;;0.65;;
76433;SDS011;65265;53.200;6.080;2023-09-19T04:30:49;8.57;;;1.00;;
76433;SDS011;65265;53.200;6.080;2023-09-19T04:35:41;7.53;;;0.88;;
76433;SDS011;65265;53.200;6.080;2023-09-19T04:40:33;3.97;;;0.80;;
76433;SDS011;65265;53.200;6.080;2023-09-19T04:45:25;5.43;;;0.30;;
76433;SDS011;65265;53.200;6.080;2023-09-19T04:50:18;4.70;;;0.82;;
76433;SDS011;65265;53.200;6.080;2023-09-19T04:55:11;5.43;;;0.30;;
76433;SDS011;65265;53.200;6.080;2023-09-19T05:00:06;5.80;;;0.90;;
76433;SDS011;65265;53.200;6.080;2023-09-19T05:05:02;7.40;;;0.60;;
76433;SDS011;65265;53.200;6.080;2023-09-19T05:14:47;5.75;;;0.50;;
76433;SDS011;65265;53.200;6.080;2023-09-19T05:19:39;6.38;;;0.70;;
76433;SDS011;65265;53.200;6.080;2023-09-19T05:24:30;4.25;;;0.68;;
76433;SDS011;65265;53.200;6.080;2023-09-19T05:29:23;4.88;;;0.75;;
76433;SDS011;65265;53.200;6.080;2023-09-19T05:34:14;4.03;;;0.55;;
76433;SDS011;65265;53.200;6.080;2023-09-19T05:39:06;4.88;;;0.60;;
76433;SDS011;65265;53.200;6.080;2023-09-19T05:43:59;3.78;;;0.95;;
76433;SDS011;65265;53.200;6.080;2023-09-19T05:48:52;3.70;;;0.60;;
76433;SDS011;65265;53.200;6.080;2023-09-19T05:53:43;4.63;;;0.40;;
76433;SDS011;65265;53.200;6.080;2023-09-19T05:58:38;6.32;;;0.57;;
76433;SDS011;65265;53.200;6.080;2023-09-19T06:03:30;6.88;;;1.13;;
76433;SDS011;65265;53.200;6.080;2023-09-19T06:08:23;3.72;;;0.35;;
76433;SDS011;65265;53.200;6.080;2023-09-19T06:13:16;11.57;;;0.85;;
76433;SDS011;65265;53.200;6.080;2023-09-19T06:18:10;6.03;;;0.95;;
76433;SDS011;65265;53.200;6.080;2023-09-19T06:23:05;7.53;;;1.52;;
76433;SDS011;65265;53.200;6.080;2023-09-19T06:27:57;6.47;;;0.65;;
76433;SDS011;65265;53.200;6.080;2023-09-19T06:32:49;6.90;;;0.68;;
76433;SDS011;65265;53.200;6.080;2023-09-19T06:37:41;5.60;;;0.47;;
76433;SDS011;65265;53.200;6.080;2023-09-19T06:42:33;4.30;;;0.73;;
76433;SDS011;65265;53.200;6.080;2023-09-19T06:47:28;6.80;;;0.38;;
76433;SDS011;65265;53.200;6.080;2023-09-19T06:52:20;6.22;;;0.80;;
76433;SDS011;65265;53.200;6.080;2023-09-19T06:57:12;4.32;;;0.80;;
76433;SDS011;65265;53.200;6.080;2023-09-19T07:02:03;3.88;;;0.52;;
76433;SDS011;65265;53.200;6.080;2023-09-19T07:06:57;6.63;;;0.70;;
76433;SDS011;65265;53.200;6.080;2023-09-19T07:11:49;6.63;;;0.80;;
76433;SDS011;65265;53.200;6.080;2023-09-19T07:16:41;7.47;;;0.98;;
76433;SDS011;65265;53.200;6.080;2023-09-19T07:21:34;8.52;;;0.68;;
76433;SDS011;65265;53.200;6.080;2023-09-19T07:26:29;7.43;;;0.98;;
76433;SDS011;65265;53.200;6.080;2023-09-19T07:31:21;4.55;;;0.75;;
76433;SDS011;65265;53.200;6.080;2023-09-19T07:36:12;3.60;;;1.20;;
76433;SDS011;65265;53.200;6.080;2023-09-19T07:41:04;8.18;;;0.98;;
76433;SDS011;65265;53.200;6.080;2023-09-19T07:45:57;4.18;;;0.40;;
76433;SDS011;65265;53.200;6.080;2023-09-19T07:50:50;7.78;;;0.55;;
76433;SDS011;65265;53.200;6.080;2023-09-19T07:55:42;5.28;;;0.63;;
76433;SDS011;65265;53.200;6.080;2023-09-19T08:00:38;4.07;;;0.63;;
76433;SDS011;65265;53.200;6.080;2023-09-19T08:05:30;5.95;;;0.40;;
76433;SDS011;65265;53.200;6.080;2023-09-19T08:10:23;5.13;;;0.40;;
76433;SDS011;65265;53.200;6.080;2023-09-19T08:15:18;12.25;;;1.05;;
76433;SDS011;65265;53.200;6.080;2023-09-19T08:20:10;8.23;;;0.88;;
76433;SDS011;65265;53.200;6.080;2023-09-19T08:25:07;10.77;;;0.68;;
76433;SDS011;65265;53.200;6.080;2023-09-19T08:29:59;8.30;;;1.80;;
76433;SDS011;65265;53.200;6.080;2023-09-19T08:34:50;8.02;;;0.85;;
76433;SDS011;65265;53.200;6.080;2023-09-19T08:39:41;5.18;;;0.50;;
76433;SDS011;65265;53.200;6.080;2023-09-19T08:44:37;6.18;;;0.68;;
76433;SDS011;65265;53.200;6.080;2023-09-19T08:49:33;5.43;;;1.08;;
76433;SDS011;65265;53.200;6.080;2023-09-19T08:54:35;8.77;;;0.90;;
76433;SDS011;65265;53.200;6.080;2023-09-19T08:59:29;4.10;;;0.70;;
76433;SDS011;65265;53.200;6.080;2023-09-19T09:04:22;7.47;;;1.60;;
76433;SDS011;65265;53.200;6.080;2023-09-19T09:09:16;8.90;;;0.77;;
76433;SDS011;65265;53.200;6.080;2023-09-19T09:14:08;7.63;;;1.08;;
76433;SDS011;65265;53.200;6.080;2023-09-19T09:19:00;5.28;;;0.95;;
76433;SDS011;65265;53.200;6.080;2023-09-19T09:23:53;11.73;;;1.80;;
76433;SDS011;65265;53.200;6.080;2023-09-19T09:28:45;5.47;;;1.42;;
76433;SDS011;65265;53.200;6.080;2023-09-19T09:33:37;5.57;;;0.85;;
76433;SDS011;65265;53.200;6.080;2023-09-19T09:38:30;9.93;;;1.08;;
76433;SDS011;65265;53.200;6.080;2023-09-19T09:43:37;9.13;;;0.90;;
76433;SDS011;65265;53.200;6.080;2023-09-19T09:48:30;7.43;;;0.63;;
76433;SDS011;65265;53.200;6.080;2023-09-19T09:53:22;8.98;;;1.85;;
76433;SDS011;65265;53.200;6.080;2023-09-19T09:58:18;5.70;;;1.30;;
76433;SDS011;65265;53.200;6.080;2023-09-19T10:03:20;10.38;;;1.88;;
76433;SDS011;65265;53.200;6.080;2023-09-19T10:08:13;8.95;;;1.15;;
76433;SDS011;65265;53.200;6.080;2023-09-19T10:13:09;7.80;;;2.20;;
76433;SDS011;65265;53.200;6.080;2023-09-19T10:18:05;7.80;;;0.60;;
76433;SDS011;65265;53.200;6.080;2023-09-19T10:23:00;6.10;;;1.70;;
76433;SDS011;65265;53.200;6.080;2023-09-19T10:27:59;8.20;;;1.50;;
76433;SDS011;65265;53.200;6.080;2023-09-19T10:32:56;6.28;;;1.60;;
76433;SDS011;65265;53.200;6.080;2023-09-19T10:37:51;7.50;;;1.20;;
76433;SDS011;65265;53.200;6.080;2023-09-19T10:42:46;10.35;;;1.65;;
76433;SDS011;65265;53.200;6.080;2023-09-19T10:47:40;10.65;;;1.23;;
76433;SDS011;65265;53.200;6.080;2023-09-19T10:57:25;8.10;;;1.35;;
76433;SDS011;65265;53.200;6.080;2023-09-19T11:02:19;8.25;;;1.45;;
76433;SDS011;65265;53.200;6.080;2023-09-19T11:07:11;11.90;;;1.80;;
76433;SDS011;65265;53.200;6.080;2023-09-19T11:12:05;5.15;;;1.23;;
76433;SDS011;65265;53.200;6.080;2023-09-19T11:22:27;8.90;;;1.33;;
76433;SDS011;65265;53.200;6.080;2023-09-19T11:33:22;4.47;;;1.25;;
76433;SDS011;65265;53.200;6.080;2023-09-19T11:38:18;9.70;;;0.95;;
76433;SDS011;65265;53.200;6.080;2023-09-19T11:43:29;7.35;;;1.42;;
76433;SDS011;65265;53.200;6.080;2023-09-19T11:48:25;7.55;;;1.90;;
76433;SDS011;65265;53.200;6.080;2023-09-19T11:53:17;6.90;;;1.35;;
76433;SDS011;65265;53.200;6.080;2023-09-19T11:58:09;7.82;;;2.38;;
76433;SDS011;65265;53.200;6.080;2023-09-19T12:03:05;8.20;;;1.17;;
76433;SDS011;65265;53.200;6.080;2023-09-19T12:08:01;6.80;;;1.20;;
76433;SDS011;65265;53.200;6.080;2023-09-19T12:12:53;6.10;;;1.35;;
76433;SDS011;65265;53.200;6.080;2023-09-19T12:17:46;6.57;;;1.90;;
76433;SDS011;65265;53.200;6.080;2023-09-19T12:22:39;11.20;;;1.98;;
76433;SDS011;65265;53.200;6.080;2023-09-19T12:27:42;6.15;;;1.17;;
76433;SDS011;65265;53.200;6.080;2023-09-19T12:32:36;6.95;;;0.98;;
76433;SDS011;65265;53.200;6.080;2023-09-19T12:37:30;7.57;;;1.33;;
76433;SDS011;65265;53.200;6.080;2023-09-19T12:42:24;5.28;;;0.82;;
76433;SDS011;65265;53.200;6.080;2023-09-19T12:47:21;5.93;;;0.75;;
76433;SDS011;65265;53.200;6.080;2023-09-19T12:52:13;5.65;;;0.88;;
76433;SDS011;65265;53.200;6.080;2023-09-19T12:57:04;4.38;;;0.98;;
76433;SDS011;65265;53.200;6.080;2023-09-19T13:02:03;6.60;;;0.65;;
76433;SDS011;65265;53.200;6.080;2023-09-19T13:06:57;4.13;;;0.75;;
76433;SDS011;65265;53.200;6.080;2023-09-19T13:11:51;9.82;;;1.00;;
76433;SDS011;65265;53.200;6.080;2023-09-19T13:16:56;7.90;;;1.33;;
76433;SDS011;65265;53.200;6.080;2023-09-19T13:21:53;6.38;;;1.08;;
76433;SDS011;65265;53.200;6.080;2023-09-19T13:26:47;4.78;;;1.42;;
76433;SDS011;65265;53.200;6.080;2023-09-19T13:31:38;5.50;;;0.80;;
76433;SDS011;65265;53.200;6.080;2023-09-19T13:36:31;5.95;;;0.95;;
76433;SDS011;65265;53.200;6.080;2023-09-19T13:41:24;3.03;;;0.75;;
76433;SDS011;65265;53.200;6.080;2023-09-19T13:46:17;4.35;;;0.93;;
76433;SDS011;65265;53.200;6.080;2023-09-19T13:51:15;3.95;;;0.73;;
76433;SDS011;65265;53.200;6.080;2023-09-19T13:56:06;4.93;;;0.65;;
76433;SDS011;65265;53.200;6.080;2023-09-19T14:00:58;5.55;;;0.95;;
76433;SDS011;65265;53.200;6.080;2023-09-19T14:05:52;7.95;;;1.10;;
76433;SDS011;65265;53.200;6.080;2023-09-19T14:10:43;5.35;;;0.82;;
76433;SDS011;65265;53.200;6.080;2023-09-19T14:15:36;3.53;;;0.82;;
76433;SDS011;65265;53.200;6.080;2023-09-19T14:20:28;7.60;;;1.30;;
76433;SDS011;65265;53.200;6.080;2023-09-19T14:25:22;2.30;;;0.55;;
76433;SDS011;65265;53.200;6.080;2023-09-19T14:30:13;4.30;;;0.60;;
76433;SDS011;65265;53.200;6.080;2023-09-19T14:35:05;3.55;;;0.68;;
76433;SDS011;65265;53.200;6.080;2023-09-19T14:39:59;6.28;;;0.95;;
76433;SDS011;65265;53.200;6.080;2023-09-19T14:44:54;6.60;;;1.02;;
76433;SDS011;65265;53.200;6.080;2023-09-19T14:49:46;4.38;;;0.98;;
76433;SDS011;65265;53.200;6.080;2023-09-19T14:54:37;4.75;;;1.23;;
76433;SDS011;65265;53.200;6.080;2023-09-19T14:59:31;3.45;;;0.77;;
76433;SDS011;65265;53.200;6.080;2023-09-19T15:09:16;5.05;;;0.65;;
76433;SDS011;65265;53.200;6.080;2023-09-19T15:14:09;7.05;;;1.48;;
76433;SDS011;65265;53.200;6.080;2023-09-19T15:19:00;11.68;;;1.55;;
76433;SDS011;65265;53.200;6.080;2023-09-19T15:23:53;5.07;;;0.77;;
76433;SDS011;65265;53.200;6.080;2023-09-19T15:28:45;4.75;;;1.25;;
76433;SDS011;65265;53.200;6.080;2023-09-19T15:33:38;5.45;;;0.93;;
76433;SDS011;65265;53.200;6.080;2023-09-19T15:38:30;7.20;;;1.95;;
76433;SDS011;65265;53.200;6.080;2023-09-19T15:43:24;8.32;;;2.20;;
76433;SDS011;65265;53.200;6.080;2023-09-19T15:48:15;6.88;;;1.10;;
76433;SDS011;65265;53.200;6.080;2023-09-19T15:53:07;5.93;;;1.38;;
76433;SDS011;65265;53.200;6.080;2023-09-19T15:57:59;3.92;;;1.15;;
76433;SDS011;65265;53.200;6.080;2023-09-19T16:02:52;5.65;;;1.13;;
76433;SDS011;65265;53.200;6.080;2023-09-19T16:07:44;7.03;;;1.58;;
76433;SDS011;65265;53.200;6.080;2023-09-19T16:12:36;4.28;;;1.80;;
76433;SDS011;65265;53.200;6.080;2023-09-19T16:17:28;6.80;;;1.35;;
76433;SDS011;65265;53.200;6.080;2023-09-19T16:22:21;5.07;;;1.10;;
76433;SDS011;65265;53.200;6.080;2023-09-19T16:27:12;5.55;;;1.13;;
76433;SDS011;65265;53.200;6.080;2023-09-19T16:32:05;3.53;;;1.10;;
76433;SDS011;65265;53.200;6.080;2023-09-19T16:36:56;6.65;;;0.93;;
76433;SDS011;65265;53.200;6.080;2023-09-19T16:41:51;4.28;;;1.98;;
76433;SDS011;65265;53.200;6.080;2023-09-19T16:46:42;4.75;;;1.13;;
76433;SDS011;65265;53.200;6.080;2023-09-19T16:51:34;4.22;;;1.20;;
76433;SDS011;65265;53.200;6.080;2023-09-19T16:56:27;4.20;;;2.28;;
76433;SDS011;65265;53.200;6.080;2023-09-19T17:01:24;6.25;;;1.33;;
76433;SDS011;65265;53.200;6.080;2023-09-19T17:06:17;4.50;;;0.93;;
76433;SDS011;65265;53.200;6.080;2023-09-19T17:11:12;6.38;;;1.88;;
76433;SDS011;65265;53.200;6.080;2023-09-19T17:16:06;5.97;;;1.38;;
76433;SDS011;65265;53.200;6.080;2023-09-19T17:21:00;7.35;;;2.33;;
76433;SDS011;65265;53.200;6.080;2023-09-19T17:25:58;10.35;;;2.58;;
76433;SDS011;65265;53.200;6.080;2023-09-19T17:30:50;5.00;;;1.70;;
76433;SDS011;65265;53.200;6.080;2023-09-19T17:35:42;6.30;;;2.17;;
76433;SDS011;65265;53.200;6.080;2023-09-19T17:40:39;7.72;;;2.67;;
76433;SDS011;65265;53.200;6.080;2023-09-19T17:45:31;8.55;;;2.15;;
76433;SDS011;65265;53.200;6.080;2023-09-19T17:50:23;9.02;;;1.60;;
76433;SDS011;65265;53.200;6.080;2023-09-19T17:55:14;5.47;;;3.15;;
76433;SDS011;65265;53.200;6.080;2023-09-19T18:00:09;9.70;;;2.83;;
76433;SDS011;65265;53.200;6.080;2023-09-19T18:05:01;7.40;;;2.28;;
76433;SDS011;65265;53.200;6.080;2023-09-19T18:09:55;6.57;;;2.97;;
76433;SDS011;65265;53.200;6.080;2023-09-19T18:14:49;6.57;;;2.00;;
76433;SDS011;65265;53.200;6.080;2023-09-19T18:19:42;6.65;;;2.72;;
76433;SDS011;65265;53.200;6.080;2023-09-19T18:24:35;6.68;;;2.88;;
76433;SDS011;65265;53.200;6.080;2023-09-19T18:29:27;8.63;;;2.33;;
76433;SDS011;65265;53.200;6.080;2023-09-19T18:34:21;7.63;;;3.28;;
76433;SDS011;65265;53.200;6.080;2023-09-19T18:39:14;5.97;;;2.33;;
76433;SDS011;65265;53.200;6.080;2023-09-19T18:44:10;8.15;;;3.20;;
76433;SDS011;65265;53.200;6.080;2023-09-19T18:49:01;4.82;;;2.13;;
76433;SDS011;65265;53.200;6.080;2023-09-19T18:53:53;7.60;;;2.58;;
76433;SDS011;65265;53.200;6.080;2023-09-19T18:58:47;9.73;;;2.45;;
76433;SDS011;65265;53.200;6.080;2023-09-19T19:03:41;10.93;;;4.00;;
76433;SDS011;65265;53.200;6.080;2023-09-19T19:08:35;7.32;;;2.45;;
76433;SDS011;65265;53.200;6.080;2023-09-19T19:13:28;8.20;;;2.75;;
76433;SDS011;65265;53.200;6.080;2023-09-19T19:18:22;9.65;;;3.70;;
76433;SDS011;65265;53.200;6.080;2023-09-19T19:23:19;7.40;;;2.33;;
76433;SDS011;65265;53.200;6.080;2023-09-19T19:28:11;8.07;;;2.75;;
76433;SDS011;65265;53.200;6.080;2023-09-19T19:33:04;9.40;;;3.47;;
76433;SDS011;65265;53.200;6.080;2023-09-19T19:38:00;7.72;;;3.03;;
76433;SDS011;65265;53.200;6.080;2023-09-19T19:42:54;9.45;;;2.35;;
76433;SDS011;65265;53.200;6.080;2023-09-19T19:47:47;9.43;;;3.38;;
76433;SDS011;65265;53.200;6.080;2023-09-19T19:52:41;6.88;;;2.67;;
76433;SDS011;65265;53.200;6.080;2023-09-19T19:57:39;5.55;;;3.40;;
76433;SDS011;65265;53.200;6.080;2023-09-19T20:02:31;8.98;;;3.38;;
76433;SDS011;65265;53.200;6.080;2023-09-19T20:07:25;9.50;;;3.15;;
76433;SDS011;65265;53.200;6.080;2023-09-19T20:12:20;9.82;;;3.60;;
76433;SDS011;65265;53.200;6.080;2023-09-19T20:17:17;5.63;;;4.20;;
76433;SDS011;65265;53.200;6.080;2023-09-19T20:22:14;4.30;;;2.13;;
76433;SDS011;65265;53.200;6.080;2023-09-19T20:27:07;8.45;;;2.30;;
76433;SDS011;65265;53.200;6.080;2023-09-19T20:31:59;7.95;;;3.33;;
76433;SDS011;65265;53.200;6.080;2023-09-19T20:36:56;7.18;;;3.53;;
76433;SDS011;65265;53.200;6.080;2023-09-19T20:41:49;5.32;;;2.95;;
76433;SDS011;65265;53.200;6.080;2023-09-19T20:46:41;7.57;;;3.03;;
76433;SDS011;65265;53.200;6.080;2023-09-19T20:51:34;8.23;;;4.05;;
76433;SDS011;65265;53.200;6.080;2023-09-19T20:56:31;11.15;;;3.17;;
76433;SDS011;65265;53.200;6.080;2023-09-19T21:01:23;11.32;;;3.35;;
76433;SDS011;65265;53.200;6.080;2023-09-19T21:06:16;6.93;;;3.65;;
76433;SDS011;65265;53.200;6.080;2023-09-19T21:11:11;8.35;;;3.50;;
76433;SDS011;65265;53.200;6.080;2023-09-19T21:16:05;7.55;;;3.38;;
76433;SDS011;65265;53.200;6.080;2023-09-19T21:21:00;10.45;;;3.78;;
76433;SDS011;65265;53.200;6.080;2023-09-19T21:25:53;10.10;;;3.22;;
76433;SDS011;65265;53.200;6.080;2023-09-19T21:30:45;12.77;;;3.80;;
76433;SDS011;65265;53.200;6.080;2023-09-19T21:35:44;6.93;;;3.05;;
76433;SDS011;65265;53.200;6.080;2023-09-19T21:40:36;7.18;;;4.30;;
76433;SDS011;65265;53.200;6.080;2023-09-19T21:45:27;11.52;;;4.18;;
76433;SDS011;65265;53.200;6.080;2023-09-19T21:50:19;10.23;;;4.05;;
76433;SDS011;65265;53.200;6.080;2023-09-19T21:55:12;10.35;;;4.95;;
76433;SDS011;65265;53.200;6.080;2023-09-19T22:00:04;9.20;;;3.85;;
76433;SDS011;65265;53.200;6.080;2023-09-19T22:05:02;11.32;;;3.92;;
76433;SDS011;65265;53.200;6.080;2023-09-19T22:09:57;12.68;;;3.25;;
76433;SDS011;65265;53.200;6.080;2023-09-19T22:14:51;12.65;;;4.72;;
76433;SDS011;65265;53.200;6.080;2023-09-19T22:19:42;10.07;;;3.00;;
76433;SDS011;65265;53.200;6.080;2023-09-19T22:24:35;13.20;;;3.60;;
76433;SDS011;65265;53.200;6.080;2023-09-19T22:29:29;11.40;;;4.22;;
76433;SDS011;65265;53.200;6.080;2023-09-19T22:34:24;7.88;;;3.40;;
76433;SDS011;65265;53.200;6.080;2023-09-19T22:39:16;9.00;;;3.63;;
76433;SDS011;65265;53.200;6.080;2023-09-19T22:44:10;5.88;;;3.05;;
76433;SDS011;65265;53.200;6.080;2023-09-19T22:49:03;8.52;;;3.35;;
76433;SDS011;65265;53.200;6.080;2023-09-19T22:54:07;8.45;;;3.63;;
76433;SDS011;65265;53.200;6.080;2023-09-19T22:59:01;7.90;;;3.17;;
76433;SDS011;65265;53.200;6.080;2023-09-19T23:03:54;9.90;;;3.53;;
76433;SDS011;65265;53.200;6.080;2023-09-19T23:09:04;7.53;;;2.88;;
76433;SDS011;65265;53.200;6.080;2023-09-19T23:13:59;10.40;;;3.30;;
76433;SDS011;65265;53.200;6.080;2023-09-19T23:18:51;6.65;;;2.63;;
76433;SDS011;65265;53.200;6.080;2023-09-19T23:23:44;11.85;;;2.92;;
76433;SDS011;65265;53.200;6.080;2023-09-19T23:28:36;9.80;;;3.00;;
76433;SDS011;65265;53.200;6.080;2023-09-19T23:33:34;8.25;;;2.55;;
76433;SDS011;65265;53.200;6.080;2023-09-19T23:38:26;8.25;;;3.05;;
76433;SDS011;65265;53.200;6.080;2023-09-19T23:43:17;12.27;;;2.78;;
76433;SDS011;65265;53.200;6.080;2023-09-19T23:48:09;9.60;;;3.50;;
76433;SDS011;65265;53.200;6.080;2023-09-19T23:53:03;6.80;;;2.65;;
76433;SDS011;65265;53.200;6.080;2023-09-19T23:57:56;6.57;;;2.35;;
